Time;durP1;ratioP1;P1;durP2;ratioP2;P2;SDS_P1;SDS_P2;PMS_P1;PMS_P2;Temp;Humidity;BMP_temperature;BMP_pressure;BME280_temperature;BME280_humidity;BME280_pressure;Samples;Min_cycle;Max_cycle;Signal;HPM_P1;HPM_P2
2022/11/22 00:00:39;;;;;;;36.90;33.65;;;;;;;;;;10211848;28;20511;-67
2022/11/22 00:05:36;;;;;;;40.97;37.08;;;;;;;;;;10190285;28;20133;-67
2022/11/22 00:10:32;;;;;;;40.30;36.63;;;;;;;;;;10182769;28;20042;-67
2022/11/22 00:15:29;;;;;;;39.85;36.15;;;;;;;;;;10192253;28;20049;-67
2022/11/22 00:20:25;;;;;;;42.10;37.92;;;;;;;;;;10199347;28;20140;-67
2022/11/22 00:25:21;;;;;;;40.88;36.92;;;;;;;;;;10196524;28;20129;-67
2022/11/22 00:30:18;;;;;;;41.42;37.55;;;;;;;;;;10198752;28;20044;-67
2022/11/22 00:35:14;;;;;;;42.17;38.25;;;;;;;;;;10187516;28;20042;-68
2022/11/22 00:40:10;;;;;;;42.08;37.58;;;;;;;;;;10208283;28;20042;-68
2022/11/22 00:45:07;;;;;;;40.90;36.63;;;;;;;;;;10207835;28;20042;-67
2022/11/22 00:50:04;;;;;;;40.42;36.42;;;;;;;;;;10214832;28;20558;-68
2022/11/22 00:55:00;;;;;;;38.83;35.03;;;;;;;;;;10182164;28;20590;-68
2022/11/22 00:59:56;;;;;;;39.60;35.60;;;;;;;;;;10197188;28;20052;-67
2022/11/22 01:04:52;;;;;;;42.35;38.05;;;;;;;;;;10192100;28;20064;-67
2022/11/22 01:09:49;;;;;;;42.08;37.70;;;;;;;;;;10203911;28;20120;-67
2022/11/22 01:14:45;;;;;;;43.03;38.92;;;;;;;;;;10208640;28;20057;-67
2022/11/22 01:19:41;;;;;;;41.92;37.72;;;;;;;;;;10205957;28;20505;-68
2022/11/22 01:24:38;;;;;;;43.58;39.08;;;;;;;;;;10195021;28;20048;-67
2022/11/22 01:29:35;;;;;;;44.47;40.08;;;;;;;;;;10200166;28;20056;-67
2022/11/22 01:34:31;;;;;;;41.53;37.60;;;;;;;;;;10192951;28;20567;-67
2022/11/22 01:39:27;;;;;;;43.70;39.22;;;;;;;;;;10200844;28;20129;-68
2022/11/22 01:44:25;;;;;;;45.05;40.58;;;;;;;;;;10200087;28;20050;-67
2022/11/22 01:49:25;;;;;;;47.67;42.90;;;;;;;;;;10183965;28;20045;-68
2022/11/22 01:54:22;;;;;;;46.80;42.13;;;;;;;;;;10204084;28;20041;-67
2022/11/22 01:59:20;;;;;;;44.42;39.97;;;;;;;;;;10195779;28;20471;-67
2022/11/22 02:04:17;;;;;;;44.75;40.28;;;;;;;;;;10180300;28;20071;-68
2022/11/22 02:09:14;;;;;;;46.03;41.63;;;;;;;;;;10191999;28;20046;-68
2022/11/22 02:14:10;;;;;;;43.85;39.67;;;;;;;;;;10205767;28;20129;-68
2022/11/22 02:19:13;;;;;;;45.67;41.17;;;;;;;;;;10194970;28;20057;-68
2022/11/22 02:24:18;;;;;;;47.40;42.70;;;;;;;;;;10186192;28;20034;-68
2022/11/22 02:29:14;;;;;;;45.50;41.00;;;;;;;;;;10197708;28;20125;-67
2022/11/22 02:34:11;;;;;;;48.35;43.40;;;;;;;;;;10197347;28;20042;-68
2022/11/22 02:39:08;;;;;;;46.92;42.38;;;;;;;;;;10179665;28;20038;-67
2022/11/22 02:44:06;;;;;;;46.45;41.90;;;;;;;;;;10186129;28;20402;-67
2022/11/22 02:49:02;;;;;;;47.85;43.13;;;;;;;;;;10182172;28;20562;-67
2022/11/22 02:53:58;;;;;;;50.20;44.97;;;;;;;;;;10208400;28;20041;-67
2022/11/22 02:58:55;;;;;;;50.38;45.63;;;;;;;;;;10197725;28;20145;-67
2022/11/22 03:03:51;;;;;;;51.35;46.15;;;;;;;;;;10211181;28;20401;-67
2022/11/22 03:08:47;;;;;;;51.22;45.88;;;;;;;;;;10203625;28;20468;-67
2022/11/22 03:13:51;;;;;;;46.85;42.42;;;;;;;;;;10197579;28;20146;-67
2022/11/22 03:18:47;;;;;;;49.08;44.33;;;;;;;;;;10196173;28;20053;-68
2022/11/22 03:23:43;;;;;;;47.85;43.30;;;;;;;;;;10196385;28;20129;-67
2022/11/22 03:28:39;;;;;;;46.80;42.40;;;;;;;;;;10195117;28;20107;-67
2022/11/22 03:33:36;;;;;;;48.63;44.17;;;;;;;;;;10184748;28;20065;-67
2022/11/22 03:38:33;;;;;;;48.75;44.53;;;;;;;;;;10203933;28;20060;-68
2022/11/22 03:43:29;;;;;;;50.70;46.20;;;;;;;;;;10186557;28;20046;-67
2022/11/22 03:48:26;;;;;;;50.25;45.70;;;;;;;;;;10199928;28;20046;-67
2022/11/22 03:53:22;;;;;;;51.22;46.42;;;;;;;;;;10179106;28;20404;-67
2022/11/22 03:58:18;;;;;;;50.70;46.15;;;;;;;;;;10192184;28;20044;-68
2022/11/22 04:03:14;;;;;;;48.40;44.03;;;;;;;;;;10189895;28;20508;-67
2022/11/22 04:08:10;;;;;;;49.80;45.20;;;;;;;;;;10206600;28;20042;-68
2022/11/22 04:13:07;;;;;;;50.05;45.60;;;;;;;;;;10212262;28;20054;-67
2022/11/22 04:18:03;;;;;;;51.90;47.17;;;;;;;;;;10181252;28;20038;-67
2022/11/22 04:23:01;;;;;;;50.67;46.28;;;;;;;;;;10178795;28;20073;-67
2022/11/22 04:27:57;;;;;;;51.75;46.92;;;;;;;;;;10188936;28;20049;-67
2022/11/22 04:32:53;;;;;;;50.38;45.67;;;;;;;;;;10205098;28;20148;-67
2022/11/22 04:37:50;;;;;;;52.50;47.45;;;;;;;;;;10195255;28;20420;-68
2022/11/22 04:48:01;;;;;;;52.35;47.38;;;;;;;;;;10193454;28;20060;-67
2022/11/22 04:52:58;;;;;;;52.70;47.85;;;;;;;;;;10204579;28;20574;-68
2022/11/22 04:57:54;;;;;;;53.53;48.53;;;;;;;;;;10192989;28;20048;-68
2022/11/22 05:02:55;;;;;;;57.30;52.10;;;;;;;;;;10211081;28;20417;-67
2022/11/22 05:07:52;;;;;;;54.55;49.42;;;;;;;;;;10204870;28;20585;-68
2022/11/22 05:12:48;;;;;;;55.22;50.20;;;;;;;;;;10209247;28;20468;-68
2022/11/22 05:17:44;;;;;;;55.97;51.05;;;;;;;;;;10184363;28;20415;-67
2022/11/22 05:27:56;;;;;;;57.78;52.45;;;;;;;;;;10205554;28;20045;-67
2022/11/22 05:32:53;;;;;;;54.47;49.55;;;;;;;;;;10188724;28;20144;-67
2022/11/22 05:37:49;;;;;;;54.08;49.45;;;;;;;;;;10200577;28;20629;-67
2022/11/22 05:42:46;;;;;;;55.58;50.38;;;;;;;;;;10184795;28;20065;-68
2022/11/22 05:47:42;;;;;;;56.80;51.78;;;;;;;;;;10191037;28;20068;-67
2022/11/22 05:52:38;;;;;;;57.75;52.42;;;;;;;;;;10203880;28;20052;-67
2022/11/22 05:57:34;;;;;;;56.03;51.17;;;;;;;;;;10196819;28;20046;-67
2022/11/22 06:02:31;;;;;;;54.50;49.60;;;;;;;;;;10206525;28;20128;-67
2022/11/22 06:07:27;;;;;;;57.30;51.97;;;;;;;;;;10203883;28;20045;-67
2022/11/22 06:12:24;;;;;;;56.22;50.88;;;;;;;;;;10203326;28;20058;-68
2022/11/22 06:17:20;;;;;;;57.72;52.40;;;;;;;;;;10183242;28;20042;-68
2022/11/22 06:22:16;;;;;;;57.72;52.53;;;;;;;;;;10186511;28;20416;-67
2022/11/22 06:27:12;;;;;;;60.00;54.88;;;;;;;;;;10180547;28;20050;-68
2022/11/22 06:32:08;;;;;;;62.03;56.60;;;;;;;;;;10203297;28;20500;-68
2022/11/22 06:37:05;;;;;;;67.82;61.75;;;;;;;;;;10184750;28;20399;-68
2022/11/22 06:42:01;;;;;;;69.18;62.78;;;;;;;;;;10206668;28;20053;-68
2022/11/22 06:46:57;;;;;;;70.82;64.47;;;;;;;;;;10188683;28;20420;-68
2022/11/22 06:51:53;;;;;;;74.20;67.85;;;;;;;;;;10197721;28;20500;-68
2022/11/22 06:56:50;;;;;;;80.05;73.15;;;;;;;;;;10180972;28;20049;-67
2022/11/22 07:01:46;;;;;;;81.30;74.03;;;;;;;;;;10194884;28;20700;-67
2022/11/22 07:06:43;;;;;;;82.85;75.68;;;;;;;;;;10203773;28;20554;-68
2022/11/22 07:11:40;;;;;;;83.82;76.60;;;;;;;;;;10195800;28;20526;-67
2022/11/22 07:16:37;;;;;;;90.35;83.18;;;;;;;;;;10180578;28;20129;-67
2022/11/22 07:21:33;;;;;;;88.00;80.93;;;;;;;;;;10203317;28;20057;-68
2022/11/22 07:26:30;;;;;;;91.57;84.07;;;;;;;;;;10187389;28;20561;-67
2022/11/22 07:31:27;;;;;;;96.60;88.88;;;;;;;;;;10193403;28;20056;-67
2022/11/22 07:36:23;;;;;;;96.82;88.93;;;;;;;;;;10192319;28;20046;-67
2022/11/22 07:41:21;;;;;;;95.70;88.15;;;;;;;;;;10195938;28;20050;-68
2022/11/22 07:46:22;;;;;;;99.90;91.82;;;;;;;;;;10192653;28;20043;-68
2022/11/22 07:51:18;;;;;;;105.03;97.22;;;;;;;;;;10199465;28;20419;-68
2022/11/22 07:56:14;;;;;;;104.60;96.63;;;;;;;;;;10203400;28;20053;-68
2022/11/22 08:01:12;;;;;;;105.57;97.72;;;;;;;;;;10192478;28;20065;-68
2022/11/22 08:06:10;;;;;;;101.40;93.72;;;;;;;;;;10207391;28;20042;-68
2022/11/22 08:11:07;;;;;;;103.40;95.78;;;;;;;;;;10204123;28;20518;-68
2022/11/22 08:16:04;;;;;;;107.53;99.53;;;;;;;;;;10204487;28;20487;-68
2022/11/22 08:21:09;;;;;;;108.45;100.43;;;;;;;;;;10190918;28;20045;-68
2022/11/22 08:26:05;;;;;;;105.18;97.30;;;;;;;;;;10201541;28;20038;-69
2022/11/22 08:31:04;;;;;;;105.65;97.70;;;;;;;;;;10203987;28;20042;-67
2022/11/22 08:36:00;;;;;;;105.32;97.72;;;;;;;;;;10189158;28;20133;-67
2022/11/22 08:40:56;;;;;;;108.95;101.03;;;;;;;;;;10195288;28;20052;-67
2022/11/22 08:45:54;;;;;;;100.07;92.40;;;;;;;;;;10197693;28;20526;-69
2022/11/22 08:50:54;;;;;;;107.00;98.95;;;;;;;;;;10197553;28;20041;-68
2022/11/22 08:55:51;;;;;;;106.90;98.90;;;;;;;;;;10201515;28;20046;-68
2022/11/22 09:00:47;;;;;;;106.05;98.13;;;;;;;;;;10204419;28;20052;-68
2022/11/22 09:05:43;;;;;;;105.82;98.05;;;;;;;;;;10207027;28;20129;-68
2022/11/22 09:11:01;;;;;;;111.95;104.00;;;;;;;;;;10209236;28;20041;-68
2022/11/22 09:16:06;;;;;;;101.05;93.40;;;;;;;;;;10206570;28;20132;-67
2022/11/22 09:21:04;;;;;;;102.68;94.75;;;;;;;;;;10209968;28;20049;-68
2022/11/22 09:26:00;;;;;;;99.88;92.47;;;;;;;;;;10194274;28;20057;-69
2022/11/22 09:31:12;;;;;;;94.40;87.38;;;;;;;;;;10189408;28;20050;-68
2022/11/22 09:36:10;;;;;;;97.03;89.63;;;;;;;;;;10190144;28;20042;-67
2022/11/22 09:41:15;;;;;;;95.55;88.50;;;;;;;;;;10200297;28;20042;-68
2022/11/22 09:46:30;;;;;;;94.05;87.13;;;;;;;;;;10194723;28;20052;-68
2022/11/22 09:51:31;;;;;;;97.28;90.20;;;;;;;;;;10195622;28;20609;-69
2022/11/22 09:56:28;;;;;;;95.30;87.72;;;;;;;;;;10188196;28;20060;-68
2022/11/22 10:01:24;;;;;;;90.40;83.65;;;;;;;;;;10185530;28;20069;-68
2022/11/22 10:06:32;;;;;;;92.03;85.00;;;;;;;;;;10196759;28;20084;-68
2022/11/22 10:11:34;;;;;;;94.00;87.07;;;;;;;;;;10198123;28;20419;-68
2022/11/22 10:16:46;;;;;;;93.30;86.07;;;;;;;;;;10181296;28;20466;-68
2022/11/22 10:21:46;;;;;;;93.20;86.45;;;;;;;;;;10197599;28;20052;-67
2022/11/22 10:26:42;;;;;;;96.13;89.13;;;;;;;;;;10201168;28;20039;-68
2022/11/22 10:31:53;;;;;;;98.20;90.93;;;;;;;;;;10208259;28;20046;-67
2022/11/22 10:36:53;;;;;;;95.43;88.45;;;;;;;;;;10187798;28;20046;-68
2022/11/22 10:41:56;;;;;;;95.40;88.57;;;;;;;;;;10189195;28;20133;-68
2022/11/22 10:47:07;;;;;;;99.05;91.43;;;;;;;;;;10194610;28;20046;-69
2022/11/22 10:52:11;;;;;;;99.05;91.72;;;;;;;;;;10206694;28;20109;-68
2022/11/22 10:57:14;;;;;;;100.85;93.72;;;;;;;;;;10198501;28;20046;-68
2022/11/22 11:02:13;;;;;;;102.68;95.15;;;;;;;;;;10215325;28;20045;-68
2022/11/22 11:07:15;;;;;;;99.95;92.63;;;;;;;;;;10208016;28;20045;-68
2022/11/22 11:12:14;;;;;;;99.57;92.57;;;;;;;;;;10213813;28;20168;-69
2022/11/22 11:17:14;;;;;;;93.45;86.53;;;;;;;;;;10188121;28;20053;-68
2022/11/22 11:22:16;;;;;;;95.00;88.20;;;;;;;;;;10199999;28;20124;-68
2022/11/22 11:27:33;;;;;;;94.82;87.85;;;;;;;;;;10190112;28;20042;-68
2022/11/22 11:32:48;;;;;;;93.90;86.50;;;;;;;;;;10200623;28;20538;-68
2022/11/22 11:37:45;;;;;;;92.20;85.18;;;;;;;;;;10193874;28;20060;-68
2022/11/22 11:42:41;;;;;;;90.97;83.88;;;;;;;;;;10200855;28;20499;-68
2022/11/22 11:47:37;;;;;;;91.65;84.85;;;;;;;;;;10208624;28;20046;-67
2022/11/22 11:52:33;;;;;;;88.90;82.03;;;;;;;;;;10208351;28;20526;-68
2022/11/22 11:57:32;;;;;;;88.90;82.20;;;;;;;;;;10198997;28;20129;-68
2022/11/22 12:02:38;;;;;;;87.75;81.15;;;;;;;;;;10208219;28;20053;-69
2022/11/22 12:07:35;;;;;;;91.05;83.82;;;;;;;;;;10186396;28;20045;-68
2022/11/22 12:12:34;;;;;;;93.43;86.43;;;;;;;;;;10212218;28;20095;-68
2022/11/22 12:17:33;;;;;;;92.53;85.60;;;;;;;;;;10192245;28;20060;-69
2022/11/22 12:22:36;;;;;;;91.97;85.07;;;;;;;;;;10187294;28;20455;-68
2022/11/22 12:27:45;;;;;;;88.18;81.38;;;;;;;;;;10190814;28;20575;-68
2022/11/22 12:32:51;;;;;;;98.72;91.60;;;;;;;;;;10212184;28;20661;-68
2022/11/22 12:37:49;;;;;;;105.90;98.40;;;;;;;;;;10185457;28;20053;-68
2022/11/22 12:42:47;;;;;;;103.60;95.50;;;;;;;;;;10203044;28;20403;-69
2022/11/22 12:47:45;;;;;;;105.35;97.97;;;;;;;;;;10202525;28;20042;-68
2022/11/22 12:52:48;;;;;;;95.72;88.93;;;;;;;;;;10177172;28;20419;-68
2022/11/22 12:57:58;;;;;;;94.38;87.43;;;;;;;;;;10193069;28;20517;-68
2022/11/22 13:03:02;;;;;;;89.50;82.80;;;;;;;;;;10205453;28;20041;-69
2022/11/22 13:07:59;;;;;;;88.25;81.75;;;;;;;;;;10198656;28;20065;-69
2022/11/22 13:12:56;;;;;;;88.32;81.28;;;;;;;;;;10210790;28;20040;-69
2022/11/22 13:17:52;;;;;;;87.22;80.43;;;;;;;;;;10192135;28;20057;-68
2022/11/22 13:23:08;;;;;;;90.10;83.22;;;;;;;;;;10203943;28;20444;-68
2022/11/22 13:28:09;;;;;;;89.30;82.55;;;;;;;;;;10193483;28;20447;-69
2022/11/22 13:33:21;;;;;;;82.88;76.20;;;;;;;;;;10209960;28;20038;-68
2022/11/22 13:38:19;;;;;;;82.90;76.50;;;;;;;;;;10192368;28;20050;-68
2022/11/22 13:43:16;;;;;;;86.85;79.97;;;;;;;;;;10197546;28;20113;-68
2022/11/22 13:48:36;;;;;;;80.55;74.38;;;;;;;;;;10193473;28;20041;-69
2022/11/22 13:53:34;;;;;;;80.55;74.35;;;;;;;;;;10191434;28;20057;-69
2022/11/22 13:58:39;;;;;;;84.10;77.07;;;;;;;;;;10192908;28;20045;-68
2022/11/22 14:03:38;;;;;;;78.40;72.18;;;;;;;;;;10188264;28;20096;-69
2022/11/22 14:08:36;;;;;;;81.20;74.95;;;;;;;;;;10210246;28;20045;-68
2022/11/22 14:13:47;;;;;;;78.60;72.18;;;;;;;;;;10200765;28;20045;-68
2022/11/22 14:19:05;;;;;;;77.85;71.47;;;;;;;;;;10176882;28;20039;-68
2022/11/22 14:24:07;;;;;;;83.95;77.20;;;;;;;;;;10183977;28;20514;-69
2022/11/22 14:29:24;;;;;;;77.63;71.40;;;;;;;;;;10199802;28;20523;-69
2022/11/22 14:34:26;;;;;;;79.72;73.30;;;;;;;;;;10159733;28;20046;-69
2022/11/22 14:39:41;;;;;;;80.07;73.63;;;;;;;;;;10191164;28;20104;-66
2022/11/22 14:44:38;;;;;;;83.90;76.85;;;;;;;;;;10193862;28;20529;-66
2022/11/22 14:49:39;;;;;;;85.88;78.00;;;;;;;;;;10194496;28;20045;-66
2022/11/22 14:54:44;;;;;;;83.80;77.13;;;;;;;;;;10195193;28;20066;-66
2022/11/22 14:59:40;;;;;;;80.88;74.32;;;;;;;;;;10207456;28;20411;-66
2022/11/22 15:05:12;;;;;;;80.03;73.35;;;;;;;;;;10211939;28;20041;-66
2022/11/22 15:10:40;;;;;;;80.05;73.35;;;;;;;;;;10108278;28;20111;-66
2022/11/22 15:15:38;;;;;;;101.55;93.47;;;;;;;;;;10197549;28;20043;-66
2022/11/22 15:20:54;;;;;;;91.32;83.72;;;;;;;;;;10208670;28;20498;-66
2022/11/22 15:26:15;;;;;;;87.72;80.82;;;;;;;;;;10192713;28;20693;-66
2022/11/22 15:31:34;;;;;;;91.40;84.05;;;;;;;;;;10197547;28;20529;-66
2022/11/22 15:37:02;;;;;;;92.57;85.22;;;;;;;;;;10200074;28;20049;-66
2022/11/22 15:42:19;;;;;;;94.20;86.95;;;;;;;;;;10201534;28;20038;-66
2022/11/22 15:47:37;;;;;;;99.20;91.38;;;;;;;;;;10187942;28;20038;-66
2022/11/22 15:53:04;;;;;;;94.30;86.72;;;;;;;;;;10200257;28;20192;-66
2022/11/22 15:58:20;;;;;;;91.53;84.07;;;;;;;;;;10187542;28;20431;-66
2022/11/22 16:03:21;;;;;;;91.90;84.65;;;;;;;;;;10201171;28;20369;-66
2022/11/22 16:08:18;;;;;;;92.53;85.25;;;;;;;;;;10191323;28;20412;-66
2022/11/22 16:13:17;;;;;;;94.43;87.32;;;;;;;;;;10216937;28;20052;-66
2022/11/22 16:18:26;;;;;;;90.60;83.60;;;;;;;;;;10191307;28;20506;-66
2022/11/22 16:23:23;;;;;;;89.53;82.40;;;;;;;;;;10198840;28;20408;-66
2022/11/22 16:28:30;;;;;;;88.60;81.43;;;;;;;;;;10197970;28;20599;-66
2022/11/22 16:33:27;;;;;;;87.45;80.40;;;;;;;;;;10203516;28;20162;-66
2022/11/22 16:38:23;;;;;;;80.78;74.28;;;;;;;;;;10197664;28;20145;-66
2022/11/22 16:43:24;;;;;;;78.97;72.57;;;;;;;;;;10196006;28;20524;-67
2022/11/22 16:48:21;;;;;;;68.35;62.47;;;;;;;;;;10190268;28;20034;-66
2022/11/22 16:53:35;;;;;;;67.80;61.63;;;;;;;;;;10194815;28;20039;-66
2022/11/22 16:58:31;;;;;;;69.05;62.85;;;;;;;;;;10186890;28;20049;-66
2022/11/22 17:03:30;;;;;;;68.75;62.60;;;;;;;;;;10207760;28;20463;-66
2022/11/22 17:08:26;;;;;;;67.22;61.42;;;;;;;;;;10194398;28;20042;-66
2022/11/22 17:13:27;;;;;;;68.85;62.95;;;;;;;;;;10213097;28;20058;-66
2022/11/22 17:18:23;;;;;;;68.60;62.45;;;;;;;;;;10196234;28;20047;-66
2022/11/22 17:23:25;;;;;;;68.38;62.42;;;;;;;;;;10194577;28;20046;-66
2022/11/22 17:28:21;;;;;;;73.25;66.70;;;;;;;;;;10195013;28;20393;-66
2022/11/22 17:33:24;;;;;;;72.97;66.68;;;;;;;;;;10248668;28;20624;-65
2022/11/22 17:38:20;;;;;;;73.05;66.65;;;;;;;;;;10181694;28;20045;-65
2022/11/22 17:43:16;;;;;;;78.60;71.88;;;;;;;;;;10249642;28;20057;-65
2022/11/22 17:48:13;;;;;;;80.50;73.47;;;;;;;;;;10276656;28;20045;-65
2022/11/22 17:53:09;;;;;;;78.35;71.95;;;;;;;;;;10278604;28;20045;-65
2022/11/22 17:58:05;;;;;;;79.25;72.63;;;;;;;;;;10266705;28;20044;-65
2022/11/22 18:03:01;;;;;;;80.63;73.72;;;;;;;;;;10285448;28;20036;-65
2022/11/22 18:08:03;;;;;;;80.20;73.33;;;;;;;;;;10287099;28;20072;-65
2022/11/22 18:12:59;;;;;;;80.38;73.72;;;;;;;;;;10270820;28;20485;-65
2022/11/22 18:18:16;;;;;;;79.28;72.53;;;;;;;;;;10281439;28;20179;-65
2022/11/22 18:23:32;;;;;;;82.55;76.00;;;;;;;;;;10274746;28;20045;-66
2022/11/22 18:28:29;;;;;;;84.15;76.90;;;;;;;;;;10268538;28;20049;-65
2022/11/22 18:33:25;;;;;;;83.35;76.38;;;;;;;;;;10275900;28;20080;-65
2022/11/22 18:38:28;;;;;;;84.53;77.15;;;;;;;;;;10276209;28;20148;-65
2022/11/22 18:43:24;;;;;;;85.05;77.35;;;;;;;;;;10254837;28;20500;-65
2022/11/22 18:48:21;;;;;;;86.18;79.00;;;;;;;;;;10249072;28;20041;-65
2022/11/22 18:53:17;;;;;;;88.97;81.05;;;;;;;;;;10253248;28;20045;-64
2022/11/22 18:58:13;;;;;;;86.93;79.63;;;;;;;;;;10252595;28;20047;-65
2022/11/22 19:03:10;;;;;;;93.22;85.32;;;;;;;;;;10241160;28;20063;-65
2022/11/22 19:08:07;;;;;;;94.90;87.28;;;;;;;;;;10244335;28;20041;-65
2022/11/22 19:13:04;;;;;;;100.57;92.75;;;;;;;;;;10258243;28;20438;-65
2022/11/22 19:18:00;;;;;;;101.85;93.95;;;;;;;;;;10252609;28;20546;-65
2022/11/22 19:22:56;;;;;;;109.00;100.20;;;;;;;;;;10258553;28;20041;-66
2022/11/22 19:27:52;;;;;;;110.32;101.50;;;;;;;;;;10245368;28;20053;-65
2022/11/22 19:32:49;;;;;;;113.22;104.20;;;;;;;;;;10242749;28;20079;-65
2022/11/22 19:37:45;;;;;;;110.38;101.80;;;;;;;;;;10243140;28;20073;-65
2022/11/22 19:42:41;;;;;;;114.05;104.85;;;;;;;;;;10245761;28;20045;-65
2022/11/22 19:47:37;;;;;;;114.20;105.28;;;;;;;;;;10240334;28;20041;-66
2022/11/22 19:52:34;;;;;;;120.50;111.57;;;;;;;;;;10250034;28;20072;-65
2022/11/22 19:57:30;;;;;;;117.35;108.25;;;;;;;;;;10249611;28;20060;-66
2022/11/22 20:02:26;;;;;;;121.00;111.88;;;;;;;;;;10256666;28;20052;-66
2022/11/22 20:07:22;;;;;;;121.65;112.57;;;;;;;;;;10251265;28;20056;-65
2022/11/22 20:12:18;;;;;;;126.43;116.05;;;;;;;;;;10251208;28;20044;-65
2022/11/22 20:17:15;;;;;;;126.70;117.28;;;;;;;;;;10253016;28;20045;-65
2022/11/22 20:22:11;;;;;;;127.90;118.30;;;;;;;;;;10260715;28;20056;-65
2022/11/22 20:27:08;;;;;;;127.82;118.28;;;;;;;;;;10246745;28;20045;-65
2022/11/22 20:32:05;;;;;;;134.07;124.55;;;;;;;;;;10253444;28;20047;-66
2022/11/22 20:37:02;;;;;;;134.07;124.38;;;;;;;;;;10249195;28;20040;-66
2022/11/22 20:41:58;;;;;;;135.57;125.10;;;;;;;;;;10245338;28;20045;-65
2022/11/22 20:47:14;;;;;;;136.07;125.13;;;;;;;;;;10239719;28;20045;-65
2022/11/22 20:52:10;;;;;;;134.98;125.25;;;;;;;;;;10240705;28;20415;-65
2022/11/22 20:57:07;;;;;;;143.27;132.88;;;;;;;;;;10239860;28;20053;-65
2022/11/22 21:02:03;;;;;;;136.85;126.45;;;;;;;;;;10252586;28;20041;-65
2022/11/22 21:07:04;;;;;;;140.68;130.35;;;;;;;;;;10249679;28;20044;-65
2022/11/22 21:12:00;;;;;;;143.25;132.77;;;;;;;;;;10251949;28;20442;-65
2022/11/22 21:16:57;;;;;;;146.82;136.70;;;;;;;;;;10234592;28;20465;-65
2022/11/22 21:22:13;;;;;;;147.23;136.95;;;;;;;;;;10249670;28;20048;-65
2022/11/22 21:27:09;;;;;;;152.10;141.18;;;;;;;;;;10245607;28;20520;-65
2022/11/22 21:32:05;;;;;;;150.43;140.10;;;;;;;;;;10251383;28;20045;-65
2022/11/22 21:37:01;;;;;;;155.70;144.73;;;;;;;;;;10247210;28;20422;-65
2022/11/22 21:41:58;;;;;;;153.23;142.55;;;;;;;;;;10245889;28;20048;-65
2022/11/22 21:46:54;;;;;;;153.18;142.18;;;;;;;;;;10241497;28;20056;-65
2022/11/22 21:51:50;;;;;;;156.23;145.23;;;;;;;;;;10238758;28;20045;-65
2022/11/22 21:56:46;;;;;;;155.32;144.32;;;;;;;;;;10248567;28;20056;-65
2022/11/22 22:01:43;;;;;;;165.80;154.20;;;;;;;;;;10239401;28;20055;-64
2022/11/22 22:06:39;;;;;;;168.15;156.75;;;;;;;;;;10242039;28;20097;-64
2022/11/22 22:11:44;;;;;;;166.60;155.33;;;;;;;;;;10243874;28;20503;-65
2022/11/22 22:16:40;;;;;;;173.98;162.27;;;;;;;;;;10245023;28;20117;-64
2022/11/22 22:21:36;;;;;;;171.65;159.80;;;;;;;;;;10254606;28;20634;-61
2022/11/22 22:26:32;;;;;;;174.82;162.93;;;;;;;;;;10239337;28;20041;-64
2022/11/22 22:31:29;;;;;;;175.15;162.98;;;;;;;;;;10248313;28;20041;-64
2022/11/22 22:36:25;;;;;;;181.23;169.23;;;;;;;;;;10248516;28;20037;-64
2022/11/22 22:41:22;;;;;;;176.02;164.15;;;;;;;;;;10244664;28;20041;-64
2022/11/22 22:46:20;;;;;;;176.50;164.85;;;;;;;;;;10254589;28;20052;-64
2022/11/22 22:51:17;;;;;;;172.15;161.07;;;;;;;;;;10251627;28;20526;-65
2022/11/22 22:56:15;;;;;;;174.35;162.23;;;;;;;;;;10249211;28;20056;-64
2022/11/22 23:01:19;;;;;;;166.70;154.98;;;;;;;;;;10256538;28;20049;-64
2022/11/22 23:06:16;;;;;;;172.35;160.75;;;;;;;;;;10254013;28;20052;-64
2022/11/22 23:11:12;;;;;;;173.60;162.40;;;;;;;;;;10238251;28;20556;-64
2022/11/22 23:16:10;;;;;;;175.02;163.50;;;;;;;;;;10247938;28;20041;-64
2022/11/22 23:21:07;;;;;;;171.85;160.52;;;;;;;;;;10254063;28;20499;-64
2022/11/22 23:26:08;;;;;;;177.18;165.40;;;;;;;;;;10250782;28;20041;-64
2022/11/22 23:31:09;;;;;;;174.38;163.18;;;;;;;;;;10253798;28;20044;-64
2022/11/22 23:36:06;;;;;;;174.98;163.50;;;;;;;;;;10241779;28;20108;-65
2022/11/22 23:41:03;;;;;;;175.02;164.20;;;;;;;;;;10252216;28;20131;-64
2022/11/22 23:45:59;;;;;;;173.70;162.55;;;;;;;;;;10243830;28;20049;-64
2022/11/22 23:51:00;;;;;;;171.00;159.90;;;;;;;;;;10248641;28;20037;-65
2022/11/22 23:56:03;;;;;;;172.23;160.35;;;;;;;;;;10248300;28;20048;-65
